createdAt,value
2023-05-23T00:01:39.851Z,62.30
2023-05-23T00:04:06.777Z,62.40
2023-05-23T00:06:34.371Z,62.30
2023-05-23T00:09:01.224Z,61.20
2023-05-23T00:11:29.142Z,61.50
2023-05-23T00:13:57.424Z,61.40
2023-05-23T00:16:24.121Z,61.00
2023-05-23T00:18:51.830Z,61.90
2023-05-23T00:21:18.571Z,61.50
2023-05-23T00:23:47.649Z,61.60
2023-05-23T00:26:14.285Z,61.80
2023-05-23T00:28:40.899Z,61.90
2023-05-23T00:31:07.710Z,62.50
2023-05-23T00:33:34.418Z,62.70
2023-05-23T00:36:01.158Z,62.00
2023-05-23T00:38:28.406Z,62.60
2023-05-23T00:40:55.084Z,62.60
2023-05-23T00:43:22.694Z,62.60
2023-05-23T00:45:49.878Z,63.10
2023-05-23T00:48:16.698Z,62.70
2023-05-23T00:50:43.469Z,63.50
2023-05-23T00:53:10.104Z,64.40
2023-05-23T00:55:36.972Z,63.90
2023-05-23T00:58:03.692Z,64.20
2023-05-23T01:00:30.788Z,64.10
2023-05-23T01:02:58.091Z,63.80
2023-05-23T01:05:25.137Z,62.70
2023-05-23T01:07:52.340Z,62.50
2023-05-23T01:10:20.375Z,63.80
2023-05-23T01:12:55.197Z,63.20
2023-05-23T01:15:23.576Z,62.60
2023-05-23T01:17:52.217Z,62.90
2023-05-23T01:20:22.748Z,62.70
2023-05-23T01:22:50.470Z,63.50
2023-05-23T01:25:23.145Z,63.30
2023-05-23T01:27:52.941Z,64.30
2023-05-23T01:30:20.651Z,63.50
2023-05-23T01:32:48.596Z,64.30
2023-05-23T01:35:20.561Z,64.50
2023-05-23T01:37:47.203Z,65.30
2023-05-23T01:40:13.828Z,64.60
2023-05-23T01:42:40.655Z,64.00
2023-05-23T01:45:07.769Z,63.80
2023-05-23T01:47:35.554Z,63.50
2023-05-23T01:50:02.678Z,64.10
2023-05-23T01:52:29.561Z,63.70
2023-05-23T01:54:56.755Z,63.50
2023-05-23T01:57:24.350Z,65.30
2023-05-23T01:59:51.128Z,64.50
2023-05-23T02:02:17.917Z,64.20
2023-05-23T02:04:44.563Z,64.20
2023-05-23T02:07:11.196Z,65.20
2023-05-23T02:09:37.833Z,66.50
2023-05-23T02:12:04.551Z,65.80
2023-05-23T02:14:31.190Z,64.70
2023-05-23T02:16:57.998Z,64.80
2023-05-23T02:19:24.732Z,65.80
2023-05-23T02:21:51.381Z,66.70
2023-05-23T02:24:18.051Z,66.40
2023-05-23T02:26:44.700Z,66.40
2023-05-23T02:29:11.489Z,65.40
2023-05-23T02:31:38.250Z,64.40
2023-05-23T02:34:04.972Z,65.00
2023-05-23T02:36:33.251Z,66.60
2023-05-23T02:38:59.954Z,66.30
2023-05-23T02:41:26.971Z,65.90
2023-05-23T02:43:53.697Z,65.20
2023-05-23T02:46:20.351Z,64.50
2023-05-23T02:48:47.294Z,65.20
2023-05-23T02:51:14.019Z,65.20
2023-05-23T02:53:41.231Z,66.10
2023-05-23T02:56:08.789Z,66.70
2023-05-23T02:58:35.758Z,66.40
2023-05-23T03:01:02.904Z,66.70
2023-05-23T03:03:31.487Z,65.80
2023-05-23T03:05:58.468Z,66.60
2023-05-23T03:08:25.186Z,65.50
2023-05-23T03:10:52.267Z,66.70
2023-05-23T03:13:18.996Z,66.30
2023-05-23T03:18:13.182Z,67.20
2023-05-23T03:20:39.870Z,65.80
2023-05-23T03:23:06.553Z,66.80
2023-05-23T03:25:33.224Z,68.10
2023-05-23T03:27:59.952Z,65.40
2023-05-23T03:30:26.680Z,65.50
2023-05-23T03:32:53.879Z,66.70
2023-05-23T03:35:21.033Z,66.60
2023-05-23T03:37:47.741Z,66.60
2023-05-23T03:40:14.422Z,67.30
2023-05-23T03:42:41.218Z,67.30
2023-05-23T03:45:07.954Z,68.80
2023-05-23T03:47:34.648Z,67.50
2023-05-23T03:50:01.400Z,68.00
2023-05-23T03:52:28.056Z,67.60
2023-05-23T03:54:54.741Z,67.70
2023-05-23T03:57:21.683Z,67.60
2023-05-23T03:59:48.446Z,67.20
2023-05-23T04:02:15.195Z,66.90
2023-05-23T04:04:42.075Z,67.20
2023-05-23T04:07:09.952Z,66.90
2023-05-23T04:09:36.634Z,66.90
2023-05-23T04:12:03.355Z,67.00
2023-05-23T04:14:30.059Z,67.90
2023-05-23T04:16:56.970Z,67.20
2023-05-23T04:19:23.751Z,68.50
2023-05-23T04:21:50.419Z,67.60
2023-05-23T04:24:17.118Z,67.70
2023-05-23T04:26:43.759Z,67.70
2023-05-23T04:29:12.124Z,68.00
2023-05-23T04:31:38.877Z,68.70
2023-05-23T04:34:05.541Z,68.70
2023-05-23T04:36:32.194Z,69.10
2023-05-23T04:38:58.837Z,69.30
2023-05-23T04:41:25.502Z,70.30
2023-05-23T04:43:54.383Z,69.00
2023-05-23T04:46:27.081Z,69.40
2023-05-23T04:48:55.077Z,69.50
2023-05-23T04:51:22.078Z,69.90
2023-05-23T04:53:49.636Z,69.60
2023-05-23T04:56:18.899Z,70.30
2023-05-23T04:58:47.047Z,69.30
2023-05-23T05:01:14.010Z,70.20
2023-05-23T05:03:40.704Z,70.80
2023-05-23T05:06:07.722Z,70.70
2023-05-23T05:08:34.312Z,71.30
2023-05-23T05:11:01.076Z,69.80
2023-05-23T05:13:27.727Z,71.60
2023-05-23T05:15:54.458Z,71.10
2023-05-23T05:18:21.134Z,71.50
2023-05-23T05:20:47.799Z,70.40
2023-05-23T05:23:14.478Z,70.80
2023-05-23T05:25:41.615Z,70.60
2023-05-23T05:28:08.425Z,70.30
2023-05-23T05:30:38.839Z,70.60
2023-05-23T05:33:06.179Z,70.70
2023-05-23T05:35:33.274Z,70.50
2023-05-23T05:38:00.405Z,69.50
2023-05-23T05:40:27.115Z,71.70
2023-05-23T05:42:53.758Z,71.10
2023-05-23T05:45:20.419Z,71.40
2023-05-23T05:47:47.118Z,71.30
2023-05-23T05:50:13.842Z,73.30
2023-05-23T05:52:41.280Z,73.10
2023-05-23T05:55:14.339Z,72.10
2023-05-23T05:57:41.242Z,72.30
2023-05-23T06:00:19.231Z,73.80
2023-05-23T06:02:51.411Z,73.00
2023-05-23T06:05:18.249Z,72.00
2023-05-23T06:07:45.278Z,71.60
2023-05-23T06:10:14.823Z,71.80
2023-05-23T06:12:41.784Z,70.30
2023-05-23T06:15:09.497Z,72.00
2023-05-23T06:17:36.359Z,72.40
2023-05-23T06:20:04.981Z,71.70
2023-05-23T06:22:31.765Z,72.80
2023-05-23T06:24:58.381Z,72.70
2023-05-23T06:27:25.073Z,72.80
2023-05-23T06:29:51.743Z,72.30
2023-05-23T06:32:18.422Z,71.80
2023-05-23T06:34:45.085Z,72.60
2023-05-23T06:37:11.701Z,71.40
2023-05-23T06:39:38.413Z,72.30
2023-05-23T06:42:05.176Z,73.00
2023-05-23T06:44:31.819Z,72.50
2023-05-23T06:46:58.932Z,72.70
2023-05-23T06:49:25.855Z,72.60
2023-05-23T06:51:52.714Z,72.00
2023-05-23T06:54:19.649Z,72.10
2023-05-23T06:56:46.374Z,71.90
2023-05-23T06:59:13.091Z,72.50
2023-05-23T07:01:40.052Z,74.00
2023-05-23T07:04:06.927Z,73.40
2023-05-23T07:06:36.336Z,73.60
2023-05-23T07:09:04.041Z,74.30
2023-05-23T07:11:30.811Z,75.50
2023-05-23T07:13:57.517Z,74.40
2023-05-23T07:16:24.155Z,75.90
2023-05-23T07:18:50.899Z,74.50
2023-05-23T07:21:17.544Z,73.60
2023-05-23T07:23:44.175Z,73.50
2023-05-23T07:26:11.566Z,73.20
2023-05-23T07:28:38.206Z,74.10
2023-05-23T07:31:04.885Z,74.20
2023-05-23T07:33:34.475Z,73.70
2023-05-23T07:36:01.442Z,74.00
2023-05-23T07:38:28.364Z,73.70
2023-05-23T07:41:03.142Z,72.60
2023-05-23T07:43:33.792Z,72.30
2023-05-23T07:46:00.481Z,73.00
2023-05-23T07:48:27.304Z,75.90
2023-05-23T07:50:55.515Z,74.70
2023-05-23T07:53:22.647Z,73.90
2023-05-23T07:55:49.300Z,72.80
2023-05-23T07:58:16.402Z,72.20
2023-05-23T08:00:44.348Z,72.20
2023-05-23T08:03:11.889Z,71.60
2023-05-23T08:05:39.254Z,72.30
2023-05-23T08:08:06.534Z,71.40
2023-05-23T08:10:35.490Z,71.30
2023-05-23T08:13:06.788Z,70.80
2023-05-23T08:15:33.868Z,71.60
2023-05-23T08:18:00.710Z,72.80
2023-05-23T08:20:31.134Z,72.60
2023-05-23T08:22:58.909Z,72.20
2023-05-23T08:25:26.203Z,72.90
2023-05-23T08:27:53.466Z,71.40
2023-05-23T08:30:23.096Z,71.10
2023-05-23T08:32:49.766Z,71.70
2023-05-23T08:35:16.492Z,71.20
2023-05-23T08:37:46.110Z,72.00
2023-05-23T08:40:19.097Z,70.70
2023-05-23T08:42:46.393Z,71.70
2023-05-23T08:45:13.040Z,72.20
2023-05-23T08:47:41.053Z,72.20
2023-05-23T08:50:09.019Z,73.10
2023-05-23T08:52:37.777Z,74.40
2023-05-23T08:55:06.108Z,72.00
2023-05-23T08:57:33.122Z,71.90
2023-05-23T09:00:00.471Z,73.50
2023-05-23T09:02:27.221Z,73.30
2023-05-23T09:04:53.906Z,73.40
2023-05-23T09:07:20.641Z,73.20
2023-05-23T09:09:49.646Z,74.30
2023-05-23T09:12:16.479Z,73.00
2023-05-23T09:14:46.186Z,75.40
2023-05-23T09:17:15.969Z,73.40
2023-05-23T09:19:43.166Z,74.20
2023-05-23T09:22:09.789Z,75.40
2023-05-23T09:24:37.056Z,75.90
2023-05-23T09:27:05.845Z,74.80
2023-05-23T09:29:32.566Z,75.80
2023-05-23T09:32:15.434Z,76.20
2023-05-23T09:34:43.000Z,73.20
2023-05-23T09:37:13.314Z,74.20
2023-05-23T09:39:39.975Z,72.40
2023-05-23T09:42:06.661Z,75.10
2023-05-23T09:44:41.113Z,74.90
2023-05-23T09:47:07.903Z,75.30
2023-05-23T09:49:34.567Z,74.90
2023-05-23T09:52:01.421Z,76.20
2023-05-23T09:54:28.200Z,76.90
2023-05-23T09:56:57.201Z,75.40
2023-05-23T09:59:28.271Z,73.60
2023-05-23T10:01:57.178Z,73.30
2023-05-23T10:04:25.430Z,73.60
2023-05-23T10:06:57.730Z,73.70
2023-05-23T10:09:24.986Z,73.10
2023-05-23T10:12:10.410Z,71.60
2023-05-23T10:14:38.708Z,72.90
2023-05-23T10:17:13.491Z,74.10
2023-05-23T10:19:58.708Z,74.40
2023-05-23T10:22:25.508Z,74.20
2023-05-23T10:24:52.897Z,74.50
2023-05-23T10:27:19.821Z,75.50
2023-05-23T10:29:46.827Z,77.40
2023-05-23T10:32:15.049Z,77.20
2023-05-23T10:34:41.862Z,77.30
2023-05-23T10:37:12.380Z,79.20
2023-05-23T10:40:01.181Z,78.00
2023-05-23T10:42:36.981Z,79.30
2023-05-23T10:45:20.542Z,80.40
2023-05-23T10:47:48.736Z,81.70
2023-05-23T10:50:17.276Z,84.40
2023-05-23T10:52:45.032Z,83.60
2023-05-23T10:55:17.621Z,83.40
2023-05-23T10:57:44.879Z,82.90
2023-05-23T11:00:15.916Z,82.00
2023-05-23T11:02:57.659Z,80.50
2023-05-23T11:05:25.047Z,80.80
2023-05-23T11:08:08.959Z,82.30
2023-05-23T11:10:54.110Z,83.20
2023-05-23T11:13:24.212Z,83.00
2023-05-23T11:15:51.114Z,84.10
2023-05-23T11:18:27.150Z,82.70
2023-05-23T11:20:54.669Z,82.90
2023-05-23T11:23:21.999Z,83.20
2023-05-23T11:25:50.376Z,83.40
2023-05-23T11:28:17.504Z,84.10
2023-05-23T11:30:44.340Z,85.00
2023-05-23T11:33:13.762Z,84.80
2023-05-23T11:35:44.329Z,84.70
2023-05-23T11:38:11.289Z,85.20
2023-05-23T11:40:39.173Z,83.60
2023-05-23T11:43:09.904Z,83.90
2023-05-23T11:45:37.577Z,83.00
2023-05-23T11:48:08.365Z,83.10
2023-05-23T11:50:35.264Z,82.70
2023-05-23T11:53:01.982Z,83.30
2023-05-23T11:55:28.647Z,84.30
2023-05-23T11:57:56.650Z,84.70
2023-05-23T12:00:23.311Z,86.60
2023-05-23T12:02:50.366Z,85.60
2023-05-23T12:05:17.254Z,86.30
2023-05-23T12:07:48.196Z,87.00
2023-05-23T12:10:16.738Z,86.80
2023-05-23T12:12:43.828Z,87.60
2023-05-23T12:15:11.579Z,87.60
2023-05-23T12:17:47.978Z,87.30
2023-05-23T12:20:14.791Z,88.00
2023-05-23T12:22:41.995Z,87.20
2023-05-23T12:25:09.462Z,87.50
2023-05-23T12:27:37.210Z,86.30
2023-05-23T12:30:09.508Z,88.00
2023-05-23T12:32:39.850Z,87.80
2023-05-23T12:35:07.237Z,87.00
2023-05-23T12:37:33.882Z,86.30
2023-05-23T12:40:10.578Z,87.80
2023-05-23T12:42:57.615Z,86.80
2023-05-23T12:45:36.687Z,87.10
2023-05-23T12:48:04.240Z,86.50
2023-05-23T12:50:31.209Z,86.50
2023-05-23T12:52:58.273Z,87.10
2023-05-23T12:55:25.100Z,87.30
2023-05-23T12:57:51.760Z,88.30
2023-05-23T13:00:19.604Z,88.00
2023-05-23T13:02:46.544Z,89.40
2023-05-23T13:05:13.368Z,89.70
2023-05-23T13:07:40.115Z,90.00
2023-05-23T13:10:07.163Z,90.00
2023-05-23T13:12:34.602Z,90.00
2023-05-23T13:15:01.308Z,90.20
2023-05-23T13:17:28.024Z,90.20
2023-05-23T13:19:54.706Z,90.10
2023-05-23T13:22:21.381Z,90.10
2023-05-23T13:24:48.076Z,90.50
2023-05-23T13:27:14.904Z,91.00
2023-05-23T13:29:42.001Z,90.90
2023-05-23T13:32:08.615Z,90.50
2023-05-23T13:34:37.392Z,90.70
2023-05-23T13:37:04.822Z,91.00
2023-05-23T13:39:31.529Z,90.60
2023-05-23T13:41:58.254Z,90.80
2023-05-23T13:44:24.921Z,90.80
2023-05-23T13:46:51.695Z,91.30
2023-05-23T13:49:18.640Z,91.40
2023-05-23T13:51:45.466Z,91.40
2023-05-23T13:54:13.368Z,91.60
2023-05-23T13:56:40.420Z,91.90
2023-05-23T13:59:07.117Z,92.00
2023-05-23T14:01:33.833Z,92.10
2023-05-23T14:04:00.740Z,91.70
2023-05-23T14:06:27.414Z,91.40
2023-05-23T14:08:54.048Z,91.70
2023-05-23T14:11:20.724Z,91.40
2023-05-23T14:13:47.350Z,91.10
2023-05-23T14:16:14.100Z,91.30
2023-05-23T14:18:40.801Z,91.30
2023-05-23T14:21:07.430Z,91.80
2023-05-23T14:23:34.121Z,91.90
2023-05-23T14:26:00.789Z,92.10
2023-05-23T14:28:27.484Z,92.00
2023-05-23T14:30:55.508Z,92.30
2023-05-23T14:33:22.226Z,92.50
2023-05-23T14:35:49.284Z,92.40
2023-05-23T14:38:16.215Z,92.30
2023-05-23T14:40:44.137Z,92.50
2023-05-23T14:43:11.610Z,92.50
2023-05-23T14:45:38.498Z,92.80
2023-05-23T14:48:06.034Z,93.20
2023-05-23T14:50:32.728Z,93.50
2023-05-23T14:52:59.795Z,93.50
2023-05-23T14:55:26.457Z,93.00
2023-05-23T14:57:53.273Z,92.60
2023-05-23T15:00:20.045Z,92.70
2023-05-23T15:02:46.827Z,92.70
2023-05-23T15:05:15.221Z,92.40
2023-05-23T15:07:41.924Z,92.20
2023-05-23T15:10:08.715Z,92.30
2023-05-23T15:12:35.497Z,91.90
2023-05-23T15:15:04.809Z,91.60
2023-05-23T15:17:32.443Z,91.20
2023-05-23T15:19:59.472Z,91.30
2023-05-23T15:24:55.742Z,91.10
2023-05-23T15:27:22.652Z,91.40
2023-05-23T15:29:49.326Z,91.20
2023-05-23T15:32:16.240Z,91.30
2023-05-23T15:34:43.005Z,91.30
2023-05-23T15:37:09.611Z,91.90
2023-05-23T15:39:36.279Z,91.30
2023-05-23T15:42:03.341Z,91.50
2023-05-23T15:44:30.166Z,92.40
2023-05-23T15:46:56.885Z,92.80
2023-05-23T15:49:26.824Z,93.20
2023-05-23T15:51:54.952Z,93.50
2023-05-23T15:54:21.700Z,94.00
2023-05-23T15:56:48.368Z,94.50
2023-05-23T15:59:15.060Z,94.40
2023-05-23T16:01:41.923Z,94.00
2023-05-23T16:04:08.767Z,94.00
2023-05-23T16:06:36.584Z,94.20
2023-05-23T16:09:03.508Z,94.30
2023-05-23T16:11:30.248Z,94.20
2023-05-23T16:13:56.887Z,94.20
2023-05-23T16:16:23.586Z,93.90
2023-05-23T16:18:50.504Z,94.00
2023-05-23T16:21:20.505Z,94.00
2023-05-23T16:23:50.618Z,93.90
2023-05-23T16:26:18.499Z,93.70
2023-05-23T16:28:45.468Z,93.80
2023-05-23T16:31:16.567Z,94.10
2023-05-23T16:33:43.699Z,94.20
2023-05-23T16:36:10.383Z,94.60
2023-05-23T16:38:37.119Z,94.70
2023-05-23T16:41:03.856Z,94.80
2023-05-23T16:43:30.580Z,95.40
2023-05-23T16:45:57.287Z,95.80
2023-05-23T16:48:23.978Z,95.30
2023-05-23T16:50:50.779Z,95.50
2023-05-23T16:53:17.429Z,95.20
2023-05-23T16:55:45.256Z,95.00
2023-05-23T16:58:12.269Z,94.70
2023-05-23T17:00:39.562Z,94.30
2023-05-23T17:03:06.502Z,94.40
2023-05-23T17:05:33.598Z,94.50
2023-05-23T17:08:00.377Z,94.30
2023-05-23T17:10:27.036Z,94.30
2023-05-23T17:12:53.682Z,93.70
2023-05-23T17:15:20.478Z,93.60
2023-05-23T17:17:47.432Z,93.90
2023-05-23T17:20:14.142Z,94.30
2023-05-23T17:22:41.822Z,94.30
2023-05-23T17:25:08.921Z,94.00
2023-05-23T17:27:35.698Z,93.70
2023-05-23T17:30:05.033Z,93.60
2023-05-23T17:32:31.755Z,93.50
2023-05-23T17:34:58.653Z,94.00
2023-05-23T17:37:26.430Z,93.70
2023-05-23T17:39:55.263Z,93.80
2023-05-23T17:42:23.432Z,93.60
2023-05-23T17:44:50.107Z,93.10
2023-05-23T17:47:18.442Z,92.90
2023-05-23T17:49:45.224Z,92.90
2023-05-23T17:52:14.739Z,92.70
2023-05-23T17:54:41.722Z,92.90
2023-05-23T17:57:08.391Z,93.00
2023-05-23T17:59:35.121Z,92.90
2023-05-23T18:02:01.878Z,92.60
2023-05-23T18:04:28.794Z,93.10
2023-05-23T18:06:55.444Z,93.10
2023-05-23T18:09:22.099Z,93.20
2023-05-23T18:11:48.717Z,93.20
2023-05-23T18:14:15.370Z,93.30
2023-05-23T18:16:42.134Z,93.40
2023-05-23T18:19:08.907Z,93.20
2023-05-23T18:21:36.112Z,93.50
2023-05-23T18:24:04.006Z,93.40
2023-05-23T18:26:30.927Z,93.20
2023-05-23T18:28:57.646Z,93.50
2023-05-23T18:31:24.276Z,93.70
2023-05-23T18:33:50.942Z,93.40
2023-05-23T18:36:17.684Z,93.30
2023-05-23T18:38:45.593Z,92.90
2023-05-23T18:41:14.687Z,92.80
2023-05-23T18:43:41.752Z,92.90
2023-05-23T18:46:08.491Z,93.10
2023-05-23T18:48:35.974Z,92.80
2023-05-23T18:51:02.862Z,92.90
2023-05-23T18:53:29.594Z,92.70
2023-05-23T18:55:56.250Z,92.50
2023-05-23T18:58:23.032Z,92.40
2023-05-23T19:00:49.872Z,92.40
2023-05-23T19:03:17.043Z,92.60
2023-05-23T19:05:43.913Z,92.60
2023-05-23T19:08:10.685Z,92.80
2023-05-23T19:10:37.349Z,92.60
2023-05-23T19:13:04.145Z,92.80
2023-05-23T19:15:31.107Z,92.70
2023-05-23T19:17:57.848Z,93.00
2023-05-23T19:20:24.478Z,92.70
2023-05-23T19:22:52.488Z,92.80
2023-05-23T19:25:20.129Z,92.80
2023-05-23T19:27:46.847Z,92.90
2023-05-23T19:30:13.646Z,93.50
2023-05-23T19:32:40.425Z,93.30
2023-05-23T19:35:08.263Z,93.10
2023-05-23T19:37:35.066Z,92.90
2023-05-23T19:40:01.860Z,93.10
2023-05-23T19:42:28.680Z,93.20
2023-05-23T19:44:55.414Z,93.30
2023-05-23T19:47:22.082Z,93.10
2023-05-23T19:49:48.742Z,93.10
2023-05-23T19:52:15.423Z,93.20
2023-05-23T19:54:42.172Z,93.20
2023-05-23T19:57:08.822Z,93.50
2023-05-23T19:59:35.587Z,93.20
2023-05-23T20:02:02.272Z,93.00
2023-05-23T20:04:29.385Z,92.80
2023-05-23T20:06:56.151Z,92.70
2023-05-23T20:09:22.991Z,92.50
2023-05-23T20:11:49.734Z,92.00
2023-05-23T20:14:16.492Z,92.10
2023-05-23T20:16:43.207Z,91.80
2023-05-23T20:19:10.029Z,91.50
2023-05-23T20:21:36.886Z,91.10
2023-05-23T20:24:03.621Z,91.10
2023-05-23T20:26:30.216Z,91.10
2023-05-23T20:28:56.924Z,90.60
2023-05-23T20:31:23.600Z,90.50
2023-05-23T20:33:50.308Z,90.40
2023-05-23T20:36:19.842Z,90.60
2023-05-23T20:38:46.869Z,90.60
2023-05-23T20:41:14.212Z,90.00
2023-05-23T20:43:40.963Z,90.30
2023-05-23T20:46:09.910Z,90.50
2023-05-23T20:48:36.632Z,90.40
2023-05-23T20:51:05.514Z,90.00
2023-05-23T20:53:32.167Z,90.00
2023-05-23T20:55:58.975Z,90.00
2023-05-23T20:58:25.795Z,89.30
2023-05-23T21:00:52.698Z,89.60
2023-05-23T21:03:19.419Z,89.40
2023-05-23T21:05:46.321Z,88.40
2023-05-23T21:08:13.042Z,89.30
2023-05-23T21:10:39.854Z,88.60
2023-05-23T21:13:06.741Z,88.70
2023-05-23T21:15:33.957Z,89.40
2023-05-23T21:18:00.667Z,88.90
2023-05-23T21:20:28.930Z,88.80
2023-05-23T21:22:55.670Z,88.60
2023-05-23T21:25:22.288Z,88.30
2023-05-23T21:27:49.011Z,88.80
2023-05-23T21:30:15.671Z,88.00
2023-05-23T21:32:43.555Z,87.80
2023-05-23T21:35:10.389Z,87.90
2023-05-23T21:37:36.976Z,87.40
2023-05-23T21:40:03.768Z,87.20
2023-05-23T21:42:30.996Z,87.00
2023-05-23T21:44:57.840Z,86.80
2023-05-23T21:47:25.074Z,86.50
2023-05-23T21:49:51.924Z,86.60
2023-05-23T21:52:18.618Z,86.30
2023-05-23T21:54:46.973Z,86.10
2023-05-23T21:57:13.982Z,85.50
2023-05-23T21:59:41.573Z,86.70
2023-05-23T22:02:08.365Z,87.80
2023-05-23T22:04:35.060Z,87.50
2023-05-23T22:07:01.719Z,87.90
2023-05-23T22:09:29.300Z,87.30
2023-05-23T22:11:56.452Z,86.70
2023-05-23T22:14:23.073Z,86.70
2023-05-23T22:16:50.175Z,86.30
2023-05-23T22:19:19.900Z,86.50
2023-05-23T22:21:49.377Z,87.40
2023-05-23T22:24:16.000Z,86.80
2023-05-23T22:26:42.667Z,87.60
2023-05-23T22:29:09.344Z,87.10
2023-05-23T22:31:35.997Z,86.20
2023-05-23T22:34:02.749Z,86.00
2023-05-23T22:36:29.411Z,87.00
2023-05-23T22:38:56.443Z,86.10
2023-05-23T22:41:23.455Z,87.30
2023-05-23T22:43:50.588Z,86.80
2023-05-23T22:46:17.362Z,87.20
2023-05-23T22:48:44.908Z,86.70
2023-05-23T22:51:13.284Z,87.50
2023-05-23T22:53:41.075Z,86.50
2023-05-23T22:56:07.729Z,86.20
2023-05-23T22:58:34.455Z,85.50
2023-05-23T23:01:01.151Z,86.50
2023-05-23T23:03:27.827Z,86.50
2023-05-23T23:05:54.530Z,86.20
2023-05-23T23:08:21.771Z,86.40
2023-05-23T23:10:48.402Z,86.80
2023-05-23T23:13:15.133Z,87.40
2023-05-23T23:15:42.910Z,87.30
2023-05-23T23:18:09.939Z,86.70
2023-05-23T23:20:37.013Z,86.50
2023-05-23T23:23:03.802Z,86.90
2023-05-23T23:25:30.520Z,87.20
2023-05-23T23:27:57.148Z,86.80
2023-05-23T23:30:23.821Z,86.90
2023-05-23T23:32:50.504Z,87.20
2023-05-23T23:35:17.229Z,86.50
2023-05-23T23:37:43.991Z,86.40
2023-05-23T23:40:10.955Z,86.30
2023-05-23T23:42:37.589Z,86.20
2023-05-23T23:45:04.850Z,86.50
2023-05-23T23:47:32.501Z,86.00
2023-05-23T23:49:59.254Z,86.20
2023-05-23T23:52:26.077Z,86.80
2023-05-23T23:54:54.696Z,86.40
2023-05-23T23:57:21.357Z,85.60
2023-05-23T23:59:48.075Z,86.60
